sensor_id;sensor_type;location;lat;lon;timestamp;P1;durP1;ratioP1;P2;durP2;ratioP2
35245;SDS011;21379;50.962;6.960;2023-09-12T00:00:38;13.00;;;7.25;;
35245;SDS011;21379;50.962;6.960;2023-09-12T00:03:05;14.68;;;7.65;;
35245;SDS011;21379;50.962;6.960;2023-09-12T00:05:33;9.65;;;6.20;;
35245;SDS011;21379;50.962;6.960;2023-09-12T00:07:59;11.80;;;6.68;;
35245;SDS011;21379;50.962;6.960;2023-09-12T00:10:26;8.25;;;6.15;;
35245;SDS011;21379;50.962;6.960;2023-09-12T00:12:53;10.80;;;6.43;;
35245;SDS011;21379;50.962;6.960;2023-09-12T00:15:20;9.85;;;6.13;;
35245;SDS011;21379;50.962;6.960;2023-09-12T00:17:47;9.55;;;5.78;;
35245;SDS011;21379;50.962;6.960;2023-09-12T00:20:14;10.95;;;6.20;;
35245;SDS011;21379;50.962;6.960;2023-09-12T00:22:42;8.57;;;6.13;;
35245;SDS011;21379;50.962;6.960;2023-09-12T00:25:09;7.82;;;5.55;;
35245;SDS011;21379;50.962;6.960;2023-09-12T00:27:36;8.93;;;5.80;;
35245;SDS011;21379;50.962;6.960;2023-09-12T00:30:03;8.65;;;5.75;;
35245;SDS011;21379;50.962;6.960;2023-09-12T00:32:31;10.75;;;6.15;;
35245;SDS011;21379;50.962;6.960;2023-09-12T00:34:58;9.68;;;5.82;;
35245;SDS011;21379;50.962;6.960;2023-09-12T00:37:24;13.00;;;6.00;;
35245;SDS011;21379;50.962;6.960;2023-09-12T00:39:53;9.82;;;6.07;;
35245;SDS011;21379;50.962;6.960;2023-09-12T00:42:19;9.30;;;5.82;;
35245;SDS011;21379;50.962;6.960;2023-09-12T00:44:46;9.43;;;5.78;;
35245;SDS011;21379;50.962;6.960;2023-09-12T00:47:13;10.48;;;6.00;;
35245;SDS011;21379;50.962;6.960;2023-09-12T00:49:39;11.35;;;5.90;;
35245;SDS011;21379;50.962;6.960;2023-09-12T00:52:06;12.15;;;6.05;;
35245;SDS011;21379;50.962;6.960;2023-09-12T00:54:34;10.40;;;6.43;;
35245;SDS011;21379;50.962;6.960;2023-09-12T00:57:02;10.68;;;6.72;;
35245;SDS011;21379;50.962;6.960;2023-09-12T00:59:29;9.20;;;6.03;;
35245;SDS011;21379;50.962;6.960;2023-09-12T01:01:56;9.63;;;5.95;;
35245;SDS011;21379;50.962;6.960;2023-09-12T01:04:23;9.77;;;6.45;;
35245;SDS011;21379;50.962;6.960;2023-09-12T01:06:50;11.23;;;6.78;;
35245;SDS011;21379;50.962;6.960;2023-09-12T01:09:17;9.30;;;6.53;;
35245;SDS011;21379;50.962;6.960;2023-09-12T01:11:44;10.18;;;6.93;;
35245;SDS011;21379;50.962;6.960;2023-09-12T01:14:12;10.60;;;6.72;;
35245;SDS011;21379;50.962;6.960;2023-09-12T01:16:38;13.45;;;7.75;;
35245;SDS011;21379;50.962;6.960;2023-09-12T01:19:05;11.57;;;7.63;;
35245;SDS011;21379;50.962;6.960;2023-09-12T01:21:48;12.48;;;7.55;;
35245;SDS011;21379;50.962;6.960;2023-09-12T01:27:35;12.25;;;8.32;;
35245;SDS011;21379;50.962;6.960;2023-09-12T01:30:05;16.63;;;7.82;;
35245;SDS011;21379;50.962;6.960;2023-09-12T01:32:32;14.57;;;7.93;;
35245;SDS011;21379;50.962;6.960;2023-09-12T01:34:59;12.05;;;7.95;;
35245;SDS011;21379;50.962;6.960;2023-09-12T01:37:28;9.82;;;7.38;;
35245;SDS011;21379;50.962;6.960;2023-09-12T01:39:55;13.57;;;7.93;;
35245;SDS011;21379;50.962;6.960;2023-09-12T01:42:22;15.18;;;7.85;;
35245;SDS011;21379;50.962;6.960;2023-09-12T01:44:50;13.55;;;9.15;;
35245;SDS011;21379;50.962;6.960;2023-09-12T01:47:21;12.18;;;7.65;;
35245;SDS011;21379;50.962;6.960;2023-09-12T01:49:49;12.50;;;7.57;;
35245;SDS011;21379;50.962;6.960;2023-09-12T01:52:18;12.80;;;7.78;;
35245;SDS011;21379;50.962;6.960;2023-09-12T01:54:45;12.68;;;7.13;;
35245;SDS011;21379;50.962;6.960;2023-09-12T01:57:13;10.55;;;7.13;;
35245;SDS011;21379;50.962;6.960;2023-09-12T01:59:41;12.13;;;7.15;;
35245;SDS011;21379;50.962;6.960;2023-09-12T02:02:09;11.45;;;7.50;;
35245;SDS011;21379;50.962;6.960;2023-09-12T02:04:36;12.77;;;6.68;;
35245;SDS011;21379;50.962;6.960;2023-09-12T02:07:03;12.02;;;7.55;;
35245;SDS011;21379;50.962;6.960;2023-09-12T02:09:30;9.77;;;6.30;;
35245;SDS011;21379;50.962;6.960;2023-09-12T02:11:56;9.05;;;6.30;;
35245;SDS011;21379;50.962;6.960;2023-09-12T02:14:23;9.57;;;6.05;;
35245;SDS011;21379;50.962;6.960;2023-09-12T02:16:50;10.68;;;6.00;;
35245;SDS011;21379;50.962;6.960;2023-09-12T02:19:20;9.25;;;5.88;;
35245;SDS011;21379;50.962;6.960;2023-09-12T02:21:47;9.27;;;6.45;;
35245;SDS011;21379;50.962;6.960;2023-09-12T02:24:14;9.45;;;5.57;;
35245;SDS011;21379;50.962;6.960;2023-09-12T02:26:41;10.38;;;5.18;;
35245;SDS011;21379;50.962;6.960;2023-09-12T02:29:07;8.45;;;5.45;;
35245;SDS011;21379;50.962;6.960;2023-09-12T02:31:35;9.57;;;5.65;;
35245;SDS011;21379;50.962;6.960;2023-09-12T02:34:01;9.20;;;6.18;;
35245;SDS011;21379;50.962;6.960;2023-09-12T02:36:29;7.85;;;5.72;;
35245;SDS011;21379;50.962;6.960;2023-09-12T02:38:56;13.25;;;6.32;;
35245;SDS011;21379;50.962;6.960;2023-09-12T02:41:23;7.90;;;5.45;;
35245;SDS011;21379;50.962;6.960;2023-09-12T02:43:50;10.43;;;5.88;;
35245;SDS011;21379;50.962;6.960;2023-09-12T02:46:16;7.75;;;5.50;;
35245;SDS011;21379;50.962;6.960;2023-09-12T02:48:43;8.10;;;5.55;;
35245;SDS011;21379;50.962;6.960;2023-09-12T02:51:10;9.57;;;6.32;;
35245;SDS011;21379;50.962;6.960;2023-09-12T02:53:39;8.60;;;5.70;;
35245;SDS011;21379;50.962;6.960;2023-09-12T02:56:05;11.18;;;5.93;;
35245;SDS011;21379;50.962;6.960;2023-09-12T02:58:32;8.02;;;5.45;;
35245;SDS011;21379;50.962;6.960;2023-09-12T03:00:59;9.23;;;5.70;;
35245;SDS011;21379;50.962;6.960;2023-09-12T03:03:28;9.20;;;5.85;;
35245;SDS011;21379;50.962;6.960;2023-09-12T03:05:58;8.57;;;6.22;;
35245;SDS011;21379;50.962;6.960;2023-09-12T03:08:25;12.43;;;6.32;;
35245;SDS011;21379;50.962;6.960;2023-09-12T03:10:56;11.50;;;6.47;;
35245;SDS011;21379;50.962;6.960;2023-09-12T03:13:24;11.48;;;7.28;;
35245;SDS011;21379;50.962;6.960;2023-09-12T03:15:51;11.70;;;7.57;;
35245;SDS011;21379;50.962;6.960;2023-09-12T03:18:18;13.30;;;7.93;;
35245;SDS011;21379;50.962;6.960;2023-09-12T03:20:45;13.52;;;8.05;;
35245;SDS011;21379;50.962;6.960;2023-09-12T03:23:11;12.20;;;7.63;;
35245;SDS011;21379;50.962;6.960;2023-09-12T03:25:38;13.98;;;7.55;;
35245;SDS011;21379;50.962;6.960;2023-09-12T03:28:07;13.98;;;8.00;;
35245;SDS011;21379;50.962;6.960;2023-09-12T03:30:34;13.10;;;7.93;;
35245;SDS011;21379;50.962;6.960;2023-09-12T03:33:03;12.45;;;7.95;;
35245;SDS011;21379;50.962;6.960;2023-09-12T03:35:31;12.23;;;8.50;;
35245;SDS011;21379;50.962;6.960;2023-09-12T03:37:58;13.93;;;7.88;;
35245;SDS011;21379;50.962;6.960;2023-09-12T03:40:27;13.10;;;8.35;;
35245;SDS011;21379;50.962;6.960;2023-09-12T03:42:54;12.98;;;7.97;;
35245;SDS011;21379;50.962;6.960;2023-09-12T03:45:22;13.15;;;8.77;;
35245;SDS011;21379;50.962;6.960;2023-09-12T03:47:49;15.25;;;8.63;;
35245;SDS011;21379;50.962;6.960;2023-09-12T03:50:16;14.15;;;8.48;;
35245;SDS011;21379;50.962;6.960;2023-09-12T03:52:43;13.80;;;8.35;;
35245;SDS011;21379;50.962;6.960;2023-09-12T03:55:09;12.50;;;8.00;;
35245;SDS011;21379;50.962;6.960;2023-09-12T03:57:36;11.93;;;8.18;;
35245;SDS011;21379;50.962;6.960;2023-09-12T04:00:03;12.68;;;8.93;;
35245;SDS011;21379;50.962;6.960;2023-09-12T04:02:40;13.50;;;8.90;;
35245;SDS011;21379;50.962;6.960;2023-09-12T04:05:07;11.25;;;8.27;;
35245;SDS011;21379;50.962;6.960;2023-09-12T04:07:34;13.50;;;8.40;;
35245;SDS011;21379;50.962;6.960;2023-09-12T04:10:01;13.13;;;8.30;;
35245;SDS011;21379;50.962;6.960;2023-09-12T04:12:28;12.02;;;8.30;;
35245;SDS011;21379;50.962;6.960;2023-09-12T04:14:55;12.68;;;8.32;;
35245;SDS011;21379;50.962;6.960;2023-09-12T04:17:21;9.75;;;6.78;;
35245;SDS011;21379;50.962;6.960;2023-09-12T04:19:50;13.02;;;8.18;;
35245;SDS011;21379;50.962;6.960;2023-09-12T04:22:17;11.38;;;8.13;;
35245;SDS011;21379;50.962;6.960;2023-09-12T04:24:44;12.15;;;7.85;;
35245;SDS011;21379;50.962;6.960;2023-09-12T04:27:10;13.45;;;7.88;;
35245;SDS011;21379;50.962;6.960;2023-09-12T04:29:38;13.93;;;8.48;;
35245;SDS011;21379;50.962;6.960;2023-09-12T04:32:05;12.38;;;7.30;;
35245;SDS011;21379;50.962;6.960;2023-09-12T04:34:32;11.82;;;7.43;;
35245;SDS011;21379;50.962;6.960;2023-09-12T04:37:00;10.82;;;7.15;;
35245;SDS011;21379;50.962;6.960;2023-09-12T04:39:27;12.18;;;7.55;;
35245;SDS011;21379;50.962;6.960;2023-09-12T04:41:55;11.75;;;6.65;;
35245;SDS011;21379;50.962;6.960;2023-09-12T04:44:22;12.20;;;6.45;;
35245;SDS011;21379;50.962;6.960;2023-09-12T04:46:48;9.23;;;6.68;;
35245;SDS011;21379;50.962;6.960;2023-09-12T04:49:15;10.55;;;6.50;;
35245;SDS011;21379;50.962;6.960;2023-09-12T04:51:42;12.32;;;6.38;;
35245;SDS011;21379;50.962;6.960;2023-09-12T04:54:10;7.63;;;5.55;;
35245;SDS011;21379;50.962;6.960;2023-09-12T04:56:37;10.05;;;6.15;;
35245;SDS011;21379;50.962;6.960;2023-09-12T04:59:04;9.27;;;5.78;;
35245;SDS011;21379;50.962;6.960;2023-09-12T05:01:32;10.85;;;5.70;;
35245;SDS011;21379;50.962;6.960;2023-09-12T05:03:59;10.25;;;6.40;;
35245;SDS011;21379;50.962;6.960;2023-09-12T05:06:25;12.52;;;6.28;;
35245;SDS011;21379;50.962;6.960;2023-09-12T05:08:52;9.90;;;6.43;;
35245;SDS011;21379;50.962;6.960;2023-09-12T05:11:19;9.50;;;6.20;;
35245;SDS011;21379;50.962;6.960;2023-09-12T05:13:46;9.60;;;5.47;;
35245;SDS011;21379;50.962;6.960;2023-09-12T05:16:12;9.32;;;4.88;;
35245;SDS011;21379;50.962;6.960;2023-09-12T05:18:39;6.05;;;4.80;;
35245;SDS011;21379;50.962;6.960;2023-09-12T05:21:06;7.70;;;5.00;;
35245;SDS011;21379;50.962;6.960;2023-09-12T05:23:33;8.07;;;5.32;;
35245;SDS011;21379;50.962;6.960;2023-09-12T05:25:59;8.90;;;5.38;;
35245;SDS011;21379;50.962;6.960;2023-09-12T05:28:27;7.93;;;5.25;;
35245;SDS011;21379;50.962;6.960;2023-09-12T05:30:54;9.32;;;5.40;;
35245;SDS011;21379;50.962;6.960;2023-09-12T05:33:21;12.32;;;5.60;;
35245;SDS011;21379;50.962;6.960;2023-09-12T05:35:48;6.90;;;5.32;;
35245;SDS011;21379;50.962;6.960;2023-09-12T05:38:15;8.55;;;5.38;;
35245;SDS011;21379;50.962;6.960;2023-09-12T05:40:41;9.35;;;5.50;;
35245;SDS011;21379;50.962;6.960;2023-09-12T05:43:08;11.57;;;5.70;;
35245;SDS011;21379;50.962;6.960;2023-09-12T05:45:36;10.57;;;5.75;;
35245;SDS011;21379;50.962;6.960;2023-09-12T05:48:03;12.35;;;5.90;;
35245;SDS011;21379;50.962;6.960;2023-09-12T05:50:32;12.10;;;6.55;;
35245;SDS011;21379;50.962;6.960;2023-09-12T05:52:59;8.55;;;5.65;;
35245;SDS011;21379;50.962;6.960;2023-09-12T05:55:25;12.68;;;5.80;;
35245;SDS011;21379;50.962;6.960;2023-09-12T05:57:52;7.65;;;5.20;;
35245;SDS011;21379;50.962;6.960;2023-09-12T06:00:20;9.10;;;6.03;;
35245;SDS011;21379;50.962;6.960;2023-09-12T06:02:48;10.23;;;5.75;;
35245;SDS011;21379;50.962;6.960;2023-09-12T06:05:15;8.50;;;5.63;;
35245;SDS011;21379;50.962;6.960;2023-09-12T06:07:41;7.72;;;5.05;;
35245;SDS011;21379;50.962;6.960;2023-09-12T06:10:08;8.82;;;5.40;;
35245;SDS011;21379;50.962;6.960;2023-09-12T06:12:35;8.10;;;5.35;;
35245;SDS011;21379;50.962;6.960;2023-09-12T06:15:02;10.68;;;6.00;;
35245;SDS011;21379;50.962;6.960;2023-09-12T06:17:29;8.75;;;5.18;;
35245;SDS011;21379;50.962;6.960;2023-09-12T06:19:57;10.52;;;5.30;;
35245;SDS011;21379;50.962;6.960;2023-09-12T06:22:24;10.25;;;5.43;;
35245;SDS011;21379;50.962;6.960;2023-09-12T06:24:50;10.07;;;5.20;;
35245;SDS011;21379;50.962;6.960;2023-09-12T06:27:17;10.15;;;5.65;;
35245;SDS011;21379;50.962;6.960;2023-09-12T06:29:45;8.77;;;6.03;;
35245;SDS011;21379;50.962;6.960;2023-09-12T06:32:13;9.60;;;6.05;;
35245;SDS011;21379;50.962;6.960;2023-09-12T06:34:40;10.57;;;6.90;;
35245;SDS011;21379;50.962;6.960;2023-09-12T06:37:08;12.65;;;7.78;;
35245;SDS011;21379;50.962;6.960;2023-09-12T06:39:34;13.90;;;9.13;;
35245;SDS011;21379;50.962;6.960;2023-09-12T06:42:01;14.30;;;8.70;;
35245;SDS011;21379;50.962;6.960;2023-09-12T06:44:28;12.82;;;8.18;;
35245;SDS011;21379;50.962;6.960;2023-09-12T06:46:55;14.73;;;9.55;;
35245;SDS011;21379;50.962;6.960;2023-09-12T06:49:21;19.00;;;10.18;;
35245;SDS011;21379;50.962;6.960;2023-09-12T06:51:48;17.33;;;9.55;;
35245;SDS011;21379;50.962;6.960;2023-09-12T06:54:16;16.75;;;10.10;;
35245;SDS011;21379;50.962;6.960;2023-09-12T06:56:43;17.45;;;11.05;;
35245;SDS011;21379;50.962;6.960;2023-09-12T06:59:09;19.85;;;10.85;;
35245;SDS011;21379;50.962;6.960;2023-09-12T07:01:36;17.50;;;10.68;;
35245;SDS011;21379;50.962;6.960;2023-09-12T07:04:03;19.65;;;10.95;;
35245;SDS011;21379;50.962;6.960;2023-09-12T07:06:30;16.85;;;9.68;;
35245;SDS011;21379;50.962;6.960;2023-09-12T07:08:57;17.23;;;10.65;;
35245;SDS011;21379;50.962;6.960;2023-09-12T07:11:25;19.83;;;10.27;;
35245;SDS011;21379;50.962;6.960;2023-09-12T07:13:52;12.63;;;9.10;;
35245;SDS011;21379;50.962;6.960;2023-09-12T07:16:19;14.13;;;9.38;;
35245;SDS011;21379;50.962;6.960;2023-09-12T07:18:47;12.88;;;8.68;;
35245;SDS011;21379;50.962;6.960;2023-09-12T07:21:14;16.65;;;10.50;;
35245;SDS011;21379;50.962;6.960;2023-09-12T07:23:40;17.38;;;10.55;;
35245;SDS011;21379;50.962;6.960;2023-09-12T07:26:11;16.00;;;9.82;;
35245;SDS011;21379;50.962;6.960;2023-09-12T07:28:39;14.05;;;9.20;;
35245;SDS011;21379;50.962;6.960;2023-09-12T07:31:06;12.38;;;8.20;;
35245;SDS011;21379;50.962;6.960;2023-09-12T07:33:33;11.75;;;7.45;;
35245;SDS011;21379;50.962;6.960;2023-09-12T07:36:00;11.68;;;7.68;;
35245;SDS011;21379;50.962;6.960;2023-09-12T07:38:28;13.02;;;6.53;;
35245;SDS011;21379;50.962;6.960;2023-09-12T07:40:56;9.43;;;5.88;;
35245;SDS011;21379;50.962;6.960;2023-09-12T07:43:22;9.93;;;6.38;;
35245;SDS011;21379;50.962;6.960;2023-09-12T07:45:54;8.10;;;5.85;;
35245;SDS011;21379;50.962;6.960;2023-09-12T07:48:21;8.50;;;5.30;;
35245;SDS011;21379;50.962;6.960;2023-09-12T07:50:48;10.00;;;5.35;;
35245;SDS011;21379;50.962;6.960;2023-09-12T07:53:14;8.95;;;5.68;;
35245;SDS011;21379;50.962;6.960;2023-09-12T07:55:41;8.65;;;5.70;;
35245;SDS011;21379;50.962;6.960;2023-09-12T07:58:12;10.60;;;5.40;;
35245;SDS011;21379;50.962;6.960;2023-09-12T08:00:39;8.57;;;5.45;;
35245;SDS011;21379;50.962;6.960;2023-09-12T08:03:07;8.15;;;5.30;;
35245;SDS011;21379;50.962;6.960;2023-09-12T08:05:34;8.52;;;4.85;;
35245;SDS011;21379;50.962;6.960;2023-09-12T08:08:00;8.13;;;5.78;;
35245;SDS011;21379;50.962;6.960;2023-09-12T08:10:27;11.68;;;5.40;;
35245;SDS011;21379;50.962;6.960;2023-09-12T08:15:21;10.45;;;6.00;;
35245;SDS011;21379;50.962;6.960;2023-09-12T08:17:48;8.50;;;5.30;;
35245;SDS011;21379;50.962;6.960;2023-09-12T08:20:18;6.22;;;5.60;;
35245;SDS011;21379;50.962;6.960;2023-09-12T08:22:45;8.93;;;5.00;;
35245;SDS011;21379;50.962;6.960;2023-09-12T08:25:12;8.40;;;5.97;;
35245;SDS011;21379;50.962;6.960;2023-09-12T08:27:39;9.10;;;5.25;;
35245;SDS011;21379;50.962;6.960;2023-09-12T08:30:07;6.60;;;5.03;;
35245;SDS011;21379;50.962;6.960;2023-09-12T08:32:35;10.95;;;5.90;;
35245;SDS011;21379;50.962;6.960;2023-09-12T08:35:01;10.02;;;5.70;;
35245;SDS011;21379;50.962;6.960;2023-09-12T08:37:30;9.05;;;5.82;;
35245;SDS011;21379;50.962;6.960;2023-09-12T08:39:57;6.72;;;5.28;;
35245;SDS011;21379;50.962;6.960;2023-09-12T08:44:51;11.52;;;5.43;;
35245;SDS011;21379;50.962;6.960;2023-09-12T08:47:18;8.75;;;5.88;;
35245;SDS011;21379;50.962;6.960;2023-09-12T08:52:12;6.60;;;5.07;;
35245;SDS011;21379;50.962;6.960;2023-09-12T08:54:40;10.07;;;5.35;;
35245;SDS011;21379;50.962;6.960;2023-09-12T08:57:06;13.57;;;6.78;;
35245;SDS011;21379;50.962;6.960;2023-09-12T09:02:00;9.35;;;6.93;;
35245;SDS011;21379;50.962;6.960;2023-09-12T09:04:28;6.32;;;5.25;;
35245;SDS011;21379;50.962;6.960;2023-09-12T09:06:56;8.65;;;5.65;;
35245;SDS011;21379;50.962;6.960;2023-09-12T09:09:24;8.88;;;6.38;;
35245;SDS011;21379;50.962;6.960;2023-09-12T09:11:52;8.10;;;6.10;;
35245;SDS011;21379;50.962;6.960;2023-09-12T09:14:19;9.88;;;6.60;;
35245;SDS011;21379;50.962;6.960;2023-09-12T09:16:45;8.07;;;5.75;;
35245;SDS011;21379;50.962;6.960;2023-09-12T09:19:12;9.50;;;5.88;;
35245;SDS011;21379;50.962;6.960;2023-09-12T09:21:40;11.20;;;6.35;;
35245;SDS011;21379;50.962;6.960;2023-09-12T09:24:08;9.30;;;5.93;;
35245;SDS011;21379;50.962;6.960;2023-09-12T09:26:42;8.25;;;5.90;;
35245;SDS011;21379;50.962;6.960;2023-09-12T09:29:12;10.73;;;6.28;;
35245;SDS011;21379;50.962;6.960;2023-09-12T09:31:40;8.00;;;5.90;;
35245;SDS011;21379;50.962;6.960;2023-09-12T09:34:11;12.02;;;6.18;;
35245;SDS011;21379;50.962;6.960;2023-09-12T09:36:42;8.15;;;6.13;;
35245;SDS011;21379;50.962;6.960;2023-09-12T09:39:09;8.52;;;5.70;;
35245;SDS011;21379;50.962;6.960;2023-09-12T09:41:36;9.77;;;6.30;;
35245;SDS011;21379;50.962;6.960;2023-09-12T09:44:03;7.88;;;5.90;;
35245;SDS011;21379;50.962;6.960;2023-09-12T09:46:32;7.07;;;6.38;;
35245;SDS011;21379;50.962;6.960;2023-09-12T09:48:59;7.68;;;5.95;;
35245;SDS011;21379;50.962;6.960;2023-09-12T09:51:26;10.38;;;5.65;;
35245;SDS011;21379;50.962;6.960;2023-09-12T09:53:52;8.57;;;5.63;;
35245;SDS011;21379;50.962;6.960;2023-09-12T09:56:23;9.38;;;5.80;;
35245;SDS011;21379;50.962;6.960;2023-09-12T09:58:51;7.32;;;5.38;;
35245;SDS011;21379;50.962;6.960;2023-09-12T10:01:18;9.00;;;5.05;;
35245;SDS011;21379;50.962;6.960;2023-09-12T10:03:48;11.75;;;4.75;;
35245;SDS011;21379;50.962;6.960;2023-09-12T10:06:15;10.10;;;4.20;;
35245;SDS011;21379;50.962;6.960;2023-09-12T10:08:43;8.38;;;4.57;;
35245;SDS011;21379;50.962;6.960;2023-09-12T10:11:10;6.72;;;5.60;;
35245;SDS011;21379;50.962;6.960;2023-09-12T10:13:37;8.63;;;4.60;;
35245;SDS011;21379;50.962;6.960;2023-09-12T10:16:05;9.27;;;6.70;;
35245;SDS011;21379;50.962;6.960;2023-09-12T10:18:34;7.85;;;4.32;;
35245;SDS011;21379;50.962;6.960;2023-09-12T10:21:04;10.13;;;4.05;;
35245;SDS011;21379;50.962;6.960;2023-09-12T10:23:37;10.32;;;5.85;;
35245;SDS011;21379;50.962;6.960;2023-09-12T10:26:08;7.35;;;5.13;;
35245;SDS011;21379;50.962;6.960;2023-09-12T10:28:36;8.07;;;4.80;;
35245;SDS011;21379;50.962;6.960;2023-09-12T10:33:30;7.53;;;5.00;;
35245;SDS011;21379;50.962;6.960;2023-09-12T10:38:26;8.90;;;5.30;;
35245;SDS011;21379;50.962;6.960;2023-09-12T10:40:55;10.80;;;5.75;;
35245;SDS011;21379;50.962;6.960;2023-09-12T10:43:22;6.90;;;4.75;;
35245;SDS011;21379;50.962;6.960;2023-09-12T10:45:50;6.57;;;4.78;;
35245;SDS011;21379;50.962;6.960;2023-09-12T10:48:17;13.82;;;5.47;;
35245;SDS011;21379;50.962;6.960;2023-09-12T10:50:44;8.40;;;5.05;;
35245;SDS011;21379;50.962;6.960;2023-09-12T10:53:11;7.47;;;5.32;;
35245;SDS011;21379;50.962;6.960;2023-09-12T10:55:40;11.25;;;5.53;;
35245;SDS011;21379;50.962;6.960;2023-09-12T10:58:08;8.23;;;5.18;;
35245;SDS011;21379;50.962;6.960;2023-09-12T11:00:36;6.35;;;4.57;;
35245;SDS011;21379;50.962;6.960;2023-09-12T11:06:05;8.80;;;5.05;;
35245;SDS011;21379;50.962;6.960;2023-09-12T11:08:47;8.10;;;4.97;;
35245;SDS011;21379;50.962;6.960;2023-09-12T11:11:44;6.85;;;4.55;;
35245;SDS011;21379;50.962;6.960;2023-09-12T11:14:12;7.18;;;5.10;;
35245;SDS011;21379;50.962;6.960;2023-09-12T11:16:40;9.20;;;5.00;;
35245;SDS011;21379;50.962;6.960;2023-09-12T11:19:17;6.55;;;4.47;;
35245;SDS011;21379;50.962;6.960;2023-09-12T11:21:45;6.72;;;4.82;;
35245;SDS011;21379;50.962;6.960;2023-09-12T11:24:12;6.57;;;4.07;;
35245;SDS011;21379;50.962;6.960;2023-09-12T11:26:54;8.13;;;5.38;;
35245;SDS011;21379;50.962;6.960;2023-09-12T11:29:24;7.22;;;4.78;;
35245;SDS011;21379;50.962;6.960;2023-09-12T11:31:54;7.63;;;4.50;;
35245;SDS011;21379;50.962;6.960;2023-09-12T11:34:24;8.27;;;5.47;;
35245;SDS011;21379;50.962;6.960;2023-09-12T11:36:54;5.68;;;4.40;;
35245;SDS011;21379;50.962;6.960;2023-09-12T11:39:22;7.68;;;4.68;;
35245;SDS011;21379;50.962;6.960;2023-09-12T11:41:49;6.63;;;4.70;;
35245;SDS011;21379;50.962;6.960;2023-09-12T11:44:18;7.82;;;4.47;;
35245;SDS011;21379;50.962;6.960;2023-09-12T11:46:46;8.32;;;5.03;;
35245;SDS011;21379;50.962;6.960;2023-09-12T11:49:14;5.95;;;4.60;;
35245;SDS011;21379;50.962;6.960;2023-09-12T11:51:46;6.97;;;4.95;;
35245;SDS011;21379;50.962;6.960;2023-09-12T11:54:14;6.57;;;4.75;;
35245;SDS011;21379;50.962;6.960;2023-09-12T11:56:41;7.30;;;4.47;;
35245;SDS011;21379;50.962;6.960;2023-09-12T11:59:08;7.40;;;5.05;;
35245;SDS011;21379;50.962;6.960;2023-09-12T12:01:36;7.78;;;5.07;;
35245;SDS011;21379;50.962;6.960;2023-09-12T12:04:03;7.10;;;4.90;;
35245;SDS011;21379;50.962;6.960;2023-09-12T12:06:31;7.00;;;5.13;;
35245;SDS011;21379;50.962;6.960;2023-09-12T12:09:00;7.90;;;5.10;;
35245;SDS011;21379;50.962;6.960;2023-09-12T12:11:29;7.03;;;4.63;;
35245;SDS011;21379;50.962;6.960;2023-09-12T12:13:56;6.03;;;4.78;;
35245;SDS011;21379;50.962;6.960;2023-09-12T12:16:24;8.55;;;4.82;;
35245;SDS011;21379;50.962;6.960;2023-09-12T12:18:53;7.18;;;4.25;;
35245;SDS011;21379;50.962;6.960;2023-09-12T12:21:21;8.52;;;5.35;;
35245;SDS011;21379;50.962;6.960;2023-09-12T12:23:56;8.63;;;5.13;;
35245;SDS011;21379;50.962;6.960;2023-09-12T12:26:24;9.27;;;5.10;;
35245;SDS011;21379;50.962;6.960;2023-09-12T12:28:50;7.05;;;5.03;;
35245;SDS011;21379;50.962;6.960;2023-09-12T12:31:17;5.97;;;4.50;;
35245;SDS011;21379;50.962;6.960;2023-09-12T12:33:47;10.20;;;6.30;;
35245;SDS011;21379;50.962;6.960;2023-09-12T12:36:15;10.90;;;5.55;;
35245;SDS011;21379;50.962;6.960;2023-09-12T12:38:42;7.82;;;5.65;;
35245;SDS011;21379;50.962;6.960;2023-09-12T12:41:12;6.28;;;5.32;;
35245;SDS011;21379;50.962;6.960;2023-09-12T12:43:39;5.30;;;4.60;;
35245;SDS011;21379;50.962;6.960;2023-09-12T12:46:09;7.85;;;5.60;;
35245;SDS011;21379;50.962;6.960;2023-09-12T12:48:36;7.95;;;5.10;;
35245;SDS011;21379;50.962;6.960;2023-09-12T12:51:13;7.43;;;4.75;;
35245;SDS011;21379;50.962;6.960;2023-09-12T12:53:43;6.57;;;5.03;;
35245;SDS011;21379;50.962;6.960;2023-09-12T12:56:12;7.70;;;4.70;;
35245;SDS011;21379;50.962;6.960;2023-09-12T12:58:44;8.77;;;4.50;;
35245;SDS011;21379;50.962;6.960;2023-09-12T13:01:12;8.48;;;5.07;;
35245;SDS011;21379;50.962;6.960;2023-09-12T13:03:39;5.80;;;4.85;;
35245;SDS011;21379;50.962;6.960;2023-09-12T13:06:06;6.32;;;4.70;;
35245;SDS011;21379;50.962;6.960;2023-09-12T13:08:38;10.32;;;5.25;;
35245;SDS011;21379;50.962;6.960;2023-09-12T13:11:06;7.50;;;4.90;;
35245;SDS011;21379;50.962;6.960;2023-09-12T13:13:33;9.55;;;4.80;;
35245;SDS011;21379;50.962;6.960;2023-09-12T13:16:01;6.28;;;5.20;;
35245;SDS011;21379;50.962;6.960;2023-09-12T13:18:28;5.95;;;5.07;;
35245;SDS011;21379;50.962;6.960;2023-09-12T13:20:55;6.50;;;4.97;;
35245;SDS011;21379;50.962;6.960;2023-09-12T13:23:22;7.28;;;4.93;;
35245;SDS011;21379;50.962;6.960;2023-09-12T13:25:49;7.65;;;4.80;;
35245;SDS011;21379;50.962;6.960;2023-09-12T13:28:17;7.30;;;5.00;;
35245;SDS011;21379;50.962;6.960;2023-09-12T13:30:44;8.35;;;4.82;;
35245;SDS011;21379;50.962;6.960;2023-09-12T13:33:11;6.45;;;4.45;;
35245;SDS011;21379;50.962;6.960;2023-09-12T13:35:39;6.28;;;4.28;;
35245;SDS011;21379;50.962;6.960;2023-09-12T13:38:06;5.80;;;4.22;;
35245;SDS011;21379;50.962;6.960;2023-09-12T13:40:35;5.38;;;4.53;;
35245;SDS011;21379;50.962;6.960;2023-09-12T13:43:03;5.72;;;4.13;;
35245;SDS011;21379;50.962;6.960;2023-09-12T13:45:31;7.72;;;4.40;;
35245;SDS011;21379;50.962;6.960;2023-09-12T13:47:57;7.13;;;4.45;;
35245;SDS011;21379;50.962;6.960;2023-09-12T13:50:24;5.53;;;4.30;;
35245;SDS011;21379;50.962;6.960;2023-09-12T13:52:51;9.80;;;3.97;;
35245;SDS011;21379;50.962;6.960;2023-09-12T13:55:19;6.53;;;4.65;;
35245;SDS011;21379;50.962;6.960;2023-09-12T13:57:46;10.68;;;4.90;;
35245;SDS011;21379;50.962;6.960;2023-09-12T14:00:13;5.90;;;4.00;;
35245;SDS011;21379;50.962;6.960;2023-09-12T14:05:09;7.07;;;3.67;;
35245;SDS011;21379;50.962;6.960;2023-09-12T14:07:36;5.65;;;4.57;;
35245;SDS011;21379;50.962;6.960;2023-09-12T14:10:03;9.45;;;4.38;;
35245;SDS011;21379;50.962;6.960;2023-09-12T14:12:30;5.72;;;3.97;;
35245;SDS011;21379;50.962;6.960;2023-09-12T14:14:57;5.32;;;4.03;;
35245;SDS011;21379;50.962;6.960;2023-09-12T14:17:24;5.50;;;4.05;;
35245;SDS011;21379;50.962;6.960;2023-09-12T14:19:52;6.32;;;4.35;;
35245;SDS011;21379;50.962;6.960;2023-09-12T14:22:18;7.25;;;3.80;;
35245;SDS011;21379;50.962;6.960;2023-09-12T14:24:46;7.43;;;4.30;;
35245;SDS011;21379;50.962;6.960;2023-09-12T14:27:13;5.20;;;4.55;;
35245;SDS011;21379;50.962;6.960;2023-09-12T14:29:39;6.13;;;3.90;;
35245;SDS011;21379;50.962;6.960;2023-09-12T14:32:10;7.68;;;4.20;;
35245;SDS011;21379;50.962;6.960;2023-09-12T14:34:37;8.60;;;4.38;;
35245;SDS011;21379;50.962;6.960;2023-09-12T14:37:05;5.45;;;3.83;;
35245;SDS011;21379;50.962;6.960;2023-09-12T14:39:31;6.60;;;4.00;;
35245;SDS011;21379;50.962;6.960;2023-09-12T14:41:58;4.38;;;3.55;;
35245;SDS011;21379;50.962;6.960;2023-09-12T14:44:27;7.95;;;4.05;;
35245;SDS011;21379;50.962;6.960;2023-09-12T14:46:57;4.82;;;3.88;;
35245;SDS011;21379;50.962;6.960;2023-09-12T14:49:24;6.00;;;3.95;;
35245;SDS011;21379;50.962;6.960;2023-09-12T14:51:51;6.60;;;3.97;;
35245;SDS011;21379;50.962;6.960;2023-09-12T14:54:19;4.47;;;3.35;;
35245;SDS011;21379;50.962;6.960;2023-09-12T14:56:47;8.10;;;3.55;;
35245;SDS011;21379;50.962;6.960;2023-09-12T14:59:14;4.28;;;3.72;;
35245;SDS011;21379;50.962;6.960;2023-09-12T15:01:41;4.25;;;3.42;;
35245;SDS011;21379;50.962;6.960;2023-09-12T15:04:09;5.30;;;3.40;;
35245;SDS011;21379;50.962;6.960;2023-09-12T15:06:36;5.43;;;3.53;;
35245;SDS011;21379;50.962;6.960;2023-09-12T15:09:03;7.65;;;4.20;;